Time;durP1;ratioP1;P1;durP2;ratioP2;P2;SDS_P1;SDS_P2;PMS_P1;PMS_P2;Temp;Humidity;BMP_temperature;BMP_pressure;BME280_temperature;BME280_humidity;BME280_pressure;Samples;Min_cycle;Max_cycle;Signal;HPM_P1;HPM_P2
2021/09/10 00:00:26;;;;;;;6.82;6.28;;;;;;;21.44;62.78;95576.25;5076570;28;20220;-83
2021/09/10 00:02:52;;;;;;;6.80;6.20;;;;;;;21.36;63.96;95585.31;5077140;28;20209;-82
2021/09/10 00:05:19;;;;;;;6.72;6.22;;;;;;;21.36;63.34;95580.88;5077160;28;20224;-85
2021/09/10 00:07:46;;;;;;;7.25;6.65;;;;;;;21.31;63.46;95583.44;5076774;28;20233;-86
2021/09/10 00:10:13;;;;;;;7.93;6.40;;;;;;;21.24;63.61;95587.28;5078018;28;20201;-85
2021/09/10 00:12:39;;;;;;;6.50;6.00;;;;;;;21.14;64.63;95581.88;5077137;28;20205;-83
2021/09/10 00:15:07;;;;;;;6.35;5.85;;;;;;;21.11;64.68;95579.75;5077255;28;20620;-82
2021/09/10 00:17:33;;;;;;;7.28;6.68;;;;;;;21.01;65.01;95583.81;5077432;28;20277;-85
2021/09/10 00:20:00;;;;;;;7.63;6.93;;;;;;;20.94;65.89;95585.03;5079162;28;20196;-84
2021/09/10 00:22:26;;;;;;;7.20;6.50;;;;;;;20.89;66.00;95580.50;5079658;28;20201;-85
2021/09/10 00:25:16;;;;;;;7.90;7.20;;;;;;;20.89;66.27;95584.94;5080448;28;20201;-83
2021/09/10 00:27:42;;;;;;;7.53;6.72;;;;;;;20.87;66.21;95582.56;5080153;28;20580;-84
2021/09/10 00:30:10;;;;;;;7.80;7.05;;;;;;;20.92;65.76;95587.09;5078291;28;20188;-83
2021/09/10 00:32:42;;;;;;;7.00;6.40;;;;;;;20.94;65.67;95577.97;5079081;28;20193;-83
2021/09/10 00:35:10;;;;;;;7.80;6.95;;;;;;;20.95;65.72;95582.16;5077763;28;20226;-83
2021/09/10 00:37:40;;;;;;;7.05;6.55;;;;;;;20.93;65.72;95578.19;5077187;28;20626;-85
2021/09/10 00:40:08;;;;;;;7.68;6.90;;;;;;;20.96;65.53;95585.59;5076288;28;20296;-83
2021/09/10 00:42:36;;;;;;;7.85;7.00;;;;;;;20.93;65.78;95580.81;5090481;28;20235;-84
2021/09/10 00:45:03;;;;;;;7.03;6.43;;;;;;;20.90;65.98;95579.47;5098201;28;20203;-84
2021/09/10 00:47:29;;;;;;;7.25;6.65;;;;;;;20.91;66.25;95588.91;5099343;28;20254;-84
2021/09/10 00:49:56;;;;;;;7.18;6.60;;;;;;;20.92;65.85;95585.25;5100188;28;20204;-85
2021/09/10 00:52:23;;;;;;;7.53;6.82;;;;;;;20.91;66.00;95582.88;5097035;28;20192;-84
2021/09/10 00:54:49;;;;;;;7.25;6.60;;;;;;;20.90;65.88;95586.53;5096047;28;20211;-82
2021/09/10 00:57:15;;;;;;;7.45;6.78;;;;;;;20.91;66.05;95585.50;5095543;28;20249;-83
2021/09/10 00:59:43;;;;;;;7.22;6.60;;;;;;;20.94;65.50;95596.28;5095143;28;20615;-85
2021/09/10 01:02:09;;;;;;;7.32;6.68;;;;;;;20.94;65.37;95590.25;5095031;28;20246;-83
2021/09/10 01:04:36;;;;;;;6.85;6.35;;;;;;;20.95;65.37;95590.03;5093559;28;20219;-82
2021/09/10 01:07:03;;;;;;;7.07;6.57;;;;;;;20.99;65.19;95591.09;5094572;28;20211;-84
2021/09/10 01:09:31;;;;;;;7.47;6.88;;;;;;;20.98;65.34;95589.50;5083975;28;20227;-85
2021/09/10 01:11:58;;;;;;;7.57;6.97;;;;;;;20.89;65.89;95588.34;5075886;28;20212;-85
2021/09/10 01:14:25;;;;;;;7.47;6.78;;;;;;;20.88;65.63;95588.59;5074356;28;20801;-84
2021/09/10 01:16:53;;;;;;;7.32;6.53;;;;;;;20.87;65.50;95590.41;5074418;28;20223;-82
2021/09/10 01:19:24;;;;;;;8.00;6.57;;;;;;;20.86;65.22;95591.44;5073533;28;20274;-84
2021/09/10 01:21:52;;;;;;;7.30;6.60;;;;;;;20.92;65.11;95595.72;5074070;28;20220;-84
2021/09/10 01:24:20;;;;;;;6.82;6.22;;;;;;;20.91;65.00;95596.75;5073767;28;20200;-85
2021/09/10 01:26:48;;;;;;;6.90;6.32;;;;;;;20.89;65.40;95593.59;5074607;28;20775;-84
2021/09/10 01:29:15;;;;;;;7.50;6.80;;;;;;;20.88;65.51;95594.63;5075178;28;20224;-82
2021/09/10 01:31:41;;;;;;;6.80;6.30;;;;;;;20.91;64.70;95591.53;5076256;28;20755;-83
2021/09/10 01:34:08;;;;;;;6.43;5.93;;;;;;;20.90;64.53;95597.00;5075168;28;20200;-84
2021/09/10 01:36:34;;;;;;;7.40;6.80;;;;;;;20.75;65.59;95588.94;5075324;28;20223;-84
2021/09/10 01:39:01;;;;;;;7.43;6.75;;;;;;;20.65;65.90;95590.38;5074388;28;20224;-85
2021/09/10 01:41:27;;;;;;;7.35;6.82;;;;;;;20.60;66.15;95592.91;5076035;28;20228;-84
2021/09/10 01:43:55;;;;;;;7.20;6.60;;;;;;;20.56;66.24;95596.25;5093610;28;20254;-84
2021/09/10 01:46:21;;;;;;;6.72;6.18;;;;;;;20.48;66.49;95596.63;5093378;28;20192;-82
2021/09/10 01:48:49;;;;;;;7.68;6.90;;;;;;;20.49;66.58;95601.63;5093675;28;20231;-82
2021/09/10 01:51:16;;;;;;;7.22;6.63;;;;;;;20.56;65.97;95593.63;5100148;28;20192;-83
2021/09/10 01:53:43;;;;;;;7.38;6.60;;;;;;;20.58;65.58;95599.41;5097634;28;20204;-84
2021/09/10 01:56:09;;;;;;;7.78;6.80;;;;;;;20.62;65.53;95603.13;5093546;28;20273;-83
2021/09/10 01:58:36;;;;;;;7.15;6.57;;;;;;;20.62;65.36;95595.28;5093879;28;20617;-82
2021/09/10 02:01:04;;;;;;;6.85;6.35;;;;;;;20.55;66.16;95595.44;5093349;28;20220;-83
2021/09/10 02:03:30;;;;;;;7.00;6.30;;;;;;;20.51;65.89;95593.53;5094032;28;20584;-81
2021/09/10 02:06:02;;;;;;;7.55;6.85;;;;;;;20.55;65.49;95597.28;5093529;28;20247;-84
2021/09/10 02:08:28;;;;;;;7.45;6.72;;;;;;;20.55;65.63;95599.91;5092641;28;20228;-85
2021/09/10 02:10:55;;;;;;;6.95;6.43;;;;;;;20.48;66.03;95601.88;5074128;28;20197;-81
2021/09/10 02:13:21;;;;;;;7.05;6.45;;;;;;;20.54;65.44;95604.34;5074924;28;20824;-81
2021/09/10 02:15:48;;;;;;;6.93;6.32;;;;;;;20.56;65.24;95610.13;5073318;28;20251;-82
2021/09/10 02:18:16;;;;;;;7.82;6.90;;;;;;;20.57;65.48;95603.06;5073319;28;20767;-83
2021/09/10 02:20:42;;;;;;;6.75;6.10;;;;;;;20.48;65.85;95607.09;5072929;28;20587;-83
2021/09/10 02:23:08;;;;;;;6.88;6.35;;;;;;;20.38;66.34;95599.09;5072509;28;20401;-84
2021/09/10 02:25:35;;;;;;;7.35;6.50;;;;;;;20.39;66.05;95598.06;5071937;28;20197;-85
2021/09/10 02:28:01;;;;;;;7.25;6.65;;;;;;;20.26;66.84;95592.06;5071741;28;20220;-84
2021/09/10 02:30:28;;;;;;;7.15;6.45;;;;;;;20.28;66.64;95591.84;5072031;28;20583;-81
2021/09/10 02:32:54;;;;;;;7.18;6.57;;;;;;;20.20;66.41;95592.25;5072347;28;20557;-82
2021/09/10 02:35:22;;;;;;;7.30;6.68;;;;;;;20.07;66.88;95593.31;5072727;28;20200;-82
2021/09/10 02:37:48;;;;;;;7.10;6.50;;;;;;;20.10;66.84;95592.06;5073056;28;20227;-82
2021/09/10 02:40:15;;;;;;;7.18;6.50;;;;;;;20.14;66.59;95588.75;5073050;28;20583;-82
2021/09/10 02:42:41;;;;;;;6.90;6.13;;;;;;;20.25;66.43;95594.91;5083817;28;20232;-82
2021/09/10 02:45:09;;;;;;;6.97;6.30;;;;;;;20.20;66.28;95587.81;5091787;28;20200;-82
2021/09/10 02:47:35;;;;;;;6.68;6.18;;;;;;;20.05;67.32;95595.38;5092227;28;20544;-82
2021/09/10 02:50:01;;;;;;;6.93;6.32;;;;;;;19.86;67.83;95597.38;5084821;28;20197;-82
2021/09/10 02:52:29;;;;;;;6.78;6.18;;;;;;;19.70;68.26;95599.97;5072613;28;20747;-83
2021/09/10 02:54:56;;;;;;;6.97;6.38;;;;;;;19.76;67.73;95594.59;5072677;28;20675;-82
2021/09/10 02:57:22;;;;;;;7.57;6.85;;;;;;;19.78;67.70;95596.97;5071942;28;20762;-82
2021/09/10 02:59:49;;;;;;;7.13;6.53;;;;;;;19.83;67.63;95584.78;5074085;28;20258;-82
2021/09/10 03:02:15;;;;;;;7.00;6.40;;;;;;;19.66;68.08;95584.75;5074337;28;20225;-82
2021/09/10 03:04:45;;;;;;;6.97;6.38;;;;;;;19.66;68.02;95584.75;5073065;28;20205;-83
2021/09/10 03:07:11;;;;;;;6.60;5.95;;;;;;;19.78;67.63;95589.94;5072709;28;20204;-82
2021/09/10 03:09:39;;;;;;;6.63;6.13;;;;;;;19.83;66.88;95590.00;5072238;28;20221;-82
2021/09/10 03:12:06;;;;;;;6.43;5.90;;;;;;;19.84;66.95;95589.00;5082078;28;20211;-82
2021/09/10 03:14:32;;;;;;;7.00;6.45;;;;;;;19.88;66.91;95586.72;5092316;28;20203;-82
2021/09/10 03:16:59;;;;;;;7.13;6.53;;;;;;;19.90;66.56;95585.44;5092632;28;20200;-82
2021/09/10 03:19:26;;;;;;;6.47;5.97;;;;;;;19.97;66.27;95588.72;5092505;28;20568;-82
2021/09/10 03:21:53;;;;;;;6.63;6.05;;;;;;;20.01;65.89;95581.97;5093055;28;20235;-82
2021/09/10 03:24:20;;;;;;;7.18;6.45;;;;;;;20.05;65.80;95577.06;5092504;28;20341;-83
2021/09/10 03:26:49;;;;;;;7.55;6.65;;;;;;;19.90;66.46;95579.44;5092111;28;20211;-83
2021/09/10 03:29:15;;;;;;;6.75;6.25;;;;;;;19.93;66.60;95584.19;5092389;28;20224;-81
2021/09/10 03:31:42;;;;;;;7.18;6.65;;;;;;;19.91;66.08;95581.81;5092745;28;20200;-82
2021/09/10 03:34:08;;;;;;;6.93;6.22;;;;;;;19.93;66.36;95576.34;5092510;28;20256;-82
2021/09/10 03:36:35;;;;;;;6.60;6.07;;;;;;;19.85;66.97;95585.34;5090777;28;20195;-82
2021/09/10 03:39:01;;;;;;;7.05;6.45;;;;;;;19.83;66.99;95581.38;5091921;28;20227;-83
2021/09/10 03:41:28;;;;;;;6.90;6.40;;;;;;;19.80;67.18;95576.66;5092082;28;20228;-82
2021/09/10 03:43:55;;;;;;;7.45;6.60;;;;;;;19.78;67.41;95576.88;5092409;28;20620;-83
2021/09/10 03:46:22;;;;;;;7.82;7.00;;;;;;;19.71;68.09;95572.81;5088310;28;20201;-82
2021/09/10 03:48:50;;;;;;;7.15;6.65;;;;;;;19.73;67.93;95568.16;5071713;28;20228;-82
2021/09/10 03:51:17;;;;;;;7.35;6.38;;;;;;;19.82;67.36;95574.59;5070938;28;20204;-82
2021/09/10 03:53:43;;;;;;;7.28;6.68;;;;;;;19.87;66.79;95575.47;5071940;28;20258;-82
2021/09/10 03:56:10;;;;;;;7.22;6.53;;;;;;;19.89;66.92;95572.59;5072546;28;20712;-81
2021/09/10 03:58:36;;;;;;;6.65;6.10;;;;;;;19.90;66.86;95572.38;5091718;28;20211;-82
2021/09/10 04:01:04;;;;;;;7.10;6.50;;;;;;;19.94;66.48;95573.50;5092638;28;20211;-82
2021/09/10 04:03:32;;;;;;;7.38;6.30;;;;;;;19.96;66.36;95571.44;5092524;28;20211;-82
2021/09/10 04:05:58;;;;;;;7.25;6.65;;;;;;;19.94;66.23;95559.63;5091875;28;20200;-81
2021/09/10 04:08:24;;;;;;;7.13;6.53;;;;;;;19.93;66.12;95561.47;5090534;28;20224;-82
2021/09/10 04:10:51;;;;;;;7.40;6.80;;;;;;;19.90;66.21;95561.13;5071842;28;20616;-83
2021/09/10 04:13:17;;;;;;;6.40;5.90;;;;;;;19.88;66.28;95563.19;5071117;28;20200;-82
2021/09/10 04:15:44;;;;;;;7.07;5.93;;;;;;;19.79;67.03;95570.63;5070455;28;20197;-82
2021/09/10 04:18:11;;;;;;;7.03;6.53;;;;;;;19.69;67.07;95561.78;5071021;28;20221;-81
2021/09/10 04:20:38;;;;;;;7.10;6.47;;;;;;;19.65;67.61;95570.09;5070940;28;20205;-82
2021/09/10 04:23:04;;;;;;;7.55;6.93;;;;;;;19.64;67.42;95565.09;5071260;28;20224;-82
2021/09/10 04:25:31;;;;;;;7.35;6.38;;;;;;;19.58;67.90;95568.66;5071134;28;20204;-82
2021/09/10 04:27:57;;;;;;;6.72;6.13;;;;;;;19.61;67.57;95568.19;5070713;28;20728;-82
2021/09/10 04:30:23;;;;;;;6.90;6.30;;;;;;;19.63;67.53;95576.56;5069691;28;20212;-83
2021/09/10 04:32:50;;;;;;;6.88;6.25;;;;;;;19.65;67.22;95566.69;5069706;28;20205;-82
2021/09/10 04:35:18;;;;;;;7.13;6.57;;;;;;;19.63;67.28;95579.19;5069354;28;20201;-82
2021/09/10 04:37:44;;;;;;;12.70;6.72;;;;;;;19.61;67.22;95581.25;5070004;28;20232;-82
2021/09/10 04:40:12;;;;;;;6.97;6.35;;;;;;;19.62;67.16;95573.19;5072847;28;20712;-82
2021/09/10 04:42:39;;;;;;;7.55;6.95;;;;;;;19.63;66.85;95577.38;5084986;28;20250;-82
2021/09/10 04:45:07;;;;;;;7.50;6.90;;;;;;;19.63;67.09;95568.72;5078819;28;20335;-82
2021/09/10 04:47:34;;;;;;;6.97;6.38;;;;;;;19.61;67.26;95578.66;5073545;28;20200;-83
2021/09/10 04:50:00;;;;;;;7.35;6.55;;;;;;;19.54;67.16;95577.97;5091186;28;20211;-82
2021/09/10 04:52:28;;;;;;;6.97;6.30;;;;;;;19.57;66.94;95574.91;5082900;28;20598;-81
2021/09/10 04:54:54;;;;;;;7.63;6.85;;;;;;;19.52;67.62;95575.59;5083355;28;20203;-81
2021/09/10 04:57:21;;;;;;;7.47;6.78;;;;;;;19.51;67.87;95574.00;5086691;28;20200;-81
2021/09/10 04:59:48;;;;;;;6.63;6.10;;;;;;;19.50;67.61;95575.03;5087821;28;20196;-81
2021/09/10 05:02:14;;;;;;;7.13;6.50;;;;;;;19.43;68.01;95579.59;5075727;28;20670;-82
2021/09/10 05:04:40;;;;;;;7.57;6.82;;;;;;;19.37;68.19;95571.88;5082398;28;20204;-81
2021/09/10 05:07:07;;;;;;;12.15;7.75;;;;;;;19.35;68.13;95576.53;5077583;28;20212;-84
2021/09/10 05:09:35;;;;;;;8.13;7.40;;;;;;;19.31;68.69;95573.59;5086718;28;20220;-84
2021/09/10 05:12:01;;;;;;;7.75;6.97;;;;;;;19.30;68.91;95574.59;5072842;28;20205;-84
2021/09/10 05:14:27;;;;;;;7.43;6.82;;;;;;;19.35;68.92;95564.28;5080069;28;20204;-84
2021/09/10 05:16:54;;;;;;;7.28;6.68;;;;;;;19.32;69.22;95580.41;5087367;28;20593;-84
2021/09/10 05:19:20;;;;;;;7.55;6.75;;;;;;;19.30;68.97;95578.00;5081681;28;20228;-84
2021/09/10 05:21:47;;;;;;;8.35;6.85;;;;;;;19.33;68.87;95581.97;5074617;28;20225;-84
2021/09/10 05:24:13;;;;;;;8.50;7.70;;;;;;;19.40;69.13;95587.09;5079244;28;20197;-84
2021/09/10 05:26:41;;;;;;;8.23;7.43;;;;;;;19.53;68.36;95592.06;5081932;28;20189;-85
2021/09/10 05:29:07;;;;;;;8.18;7.45;;;;;;;19.62;67.82;95591.47;5089309;28;20213;-85
2021/09/10 05:31:35;;;;;;;9.50;6.95;;;;;;;19.63;67.60;95585.19;5091395;28;20205;-85
2021/09/10 05:34:02;;;;;;;9.32;6.93;;;;;;;19.70;67.17;95592.91;5091080;28;20205;-84
2021/09/10 05:36:28;;;;;;;8.63;6.80;;;;;;;19.73;67.41;95594.28;5095257;28;20193;-84
2021/09/10 05:38:55;;;;;;;8.35;7.15;;;;;;;19.77;67.08;95593.56;5093887;28;20223;-84
2021/09/10 05:41:21;;;;;;;8.48;7.57;;;;;;;19.83;66.86;95594.44;5086478;28;20229;-84
2021/09/10 05:43:50;;;;;;;9.02;7.30;;;;;;;19.90;66.70;95595.91;5093191;28;20215;-84
2021/09/10 05:46:16;;;;;;;7.82;7.03;;;;;;;19.94;65.89;95594.41;5100938;28;20199;-84
2021/09/10 05:48:43;;;;;;;8.25;7.47;;;;;;;19.99;66.13;95596.31;5092676;28;20238;-84
2021/09/10 05:51:11;;;;;;;7.65;6.90;;;;;;;20.04;65.96;95599.00;5093209;28;20219;-84
2021/09/10 05:53:38;;;;;;;7.75;6.90;;;;;;;20.08;66.03;95596.72;5094418;28;20280;-84
2021/09/10 05:56:05;;;;;;;10.10;7.20;;;;;;;20.11;65.42;95594.44;5093881;28;20200;-85
2021/09/10 05:58:31;;;;;;;10.80;7.20;;;;;;;20.15;65.35;95584.31;5095238;28;20220;-85
2021/09/10 06:00:59;;;;;;;9.18;6.75;;;;;;;20.18;65.34;95600.31;5086713;28;20205;-84
2021/09/10 06:03:25;;;;;;;7.65;6.40;;;;;;;20.22;64.91;95598.78;5081332;28;20273;-84
2021/09/10 06:05:52;;;;;;;9.65;6.70;;;;;;;20.28;64.79;95597.84;5092369;28;20215;-85
2021/09/10 06:08:18;;;;;;;7.20;6.50;;;;;;;20.34;64.71;95598.75;5085022;28;20232;-84
2021/09/10 06:10:46;;;;;;;7.88;6.90;;;;;;;20.40;64.80;95597.03;5097521;28;20258;-85
2021/09/10 06:13:13;;;;;;;7.47;6.68;;;;;;;20.45;64.67;95597.91;5087971;28;20196;-84
2021/09/10 06:15:40;;;;;;;8.45;7.55;;;;;;;20.50;64.73;95597.97;5100211;28;20253;-85
2021/09/10 06:18:07;;;;;;;9.88;6.88;;;;;;;20.56;64.50;95599.66;5092881;28;20247;-84
2021/09/10 06:20:34;;;;;;;10.05;6.85;;;;;;;20.62;64.39;95601.31;5088386;28;20204;-84
2021/09/10 06:23:00;;;;;;;6.65;6.05;;;;;;;20.67;64.73;95596.16;5079206;28;20232;-84
2021/09/10 06:25:27;;;;;;;7.90;6.60;;;;;;;20.73;64.20;95601.47;5088607;28;20204;-85
2021/09/10 06:27:54;;;;;;;7.75;6.90;;;;;;;20.80;63.75;95602.06;5094409;28;20262;-84
2021/09/10 06:30:32;;;;;;;7.20;6.57;;;;;;;20.85;63.90;95597.72;5087107;28;20236;-84
2021/09/10 06:32:58;;;;;;;7.38;6.50;;;;;;;20.95;63.12;95597.88;5083619;28;20196;-85
2021/09/10 06:35:26;;;;;;;7.15;6.10;;;;;;;21.08;62.87;95601.16;5081083;28;20208;-85
2021/09/10 06:37:54;;;;;;;6.80;6.20;;;;;;;21.19;62.46;95608.91;5089714;28;20220;-84
2021/09/10 06:40:20;;;;;;;6.72;6.13;;;;;;;21.33;62.33;95601.53;5087047;28;20582;-84
2021/09/10 06:42:47;;;;;;;8.27;6.40;;;;;;;21.41;62.12;95602.94;5091880;28;20884;-84
2021/09/10 06:45:14;;;;;;;7.63;6.93;;;;;;;21.44;61.60;95603.22;5088832;28;20203;-84
2021/09/10 06:47:40;;;;;;;6.60;6.10;;;;;;;21.54;60.99;95605.19;5089548;28;20229;-84
2021/09/10 06:50:09;;;;;;;6.93;6.32;;;;;;;21.69;60.76;95602.75;5080940;28;20201;-84
2021/09/10 06:52:38;;;;;;;6.88;6.28;;;;;;;21.79;60.52;95594.97;5080098;28;20231;-82
2021/09/10 06:55:06;;;;;;;6.57;6.07;;;;;;;21.86;60.40;95605.28;5089789;28;20212;-84
2021/09/10 06:57:33;;;;;;;6.63;6.03;;;;;;;21.97;59.81;95599.88;5090909;28;20197;-81
2021/09/10 06:59:59;;;;;;;6.72;5.95;;;;;;;22.11;59.77;95605.56;5093371;28;20200;-82
2021/09/10 07:02:25;;;;;;;8.73;6.30;;;;;;;22.18;59.69;95603.53;5091883;28;20220;-82
2021/09/10 07:04:52;;;;;;;6.88;6.28;;;;;;;22.26;59.50;95615.41;5097920;28;20196;-82
2021/09/10 07:07:18;;;;;;;6.63;5.72;;;;;;;22.40;59.27;95608.69;5088552;28;20196;-82
2021/09/10 07:09:46;;;;;;;6.25;5.72;;;;;;;22.55;59.19;95610.66;5090896;28;20235;-82
2021/09/10 07:12:12;;;;;;;7.40;6.00;;;;;;;22.66;57.93;95605.25;5090403;28;20587;-82
2021/09/10 07:14:39;;;;;;;8.75;5.70;;;;;;;22.68;57.70;95610.25;5080063;28;20200;-81
2021/09/10 07:17:05;;;;;;;8.35;6.00;;;;;;;22.74;57.48;95607.38;5082029;28;20207;-83
2021/09/10 07:19:32;;;;;;;6.40;5.80;;;;;;;22.87;57.58;95611.47;5087712;28;20219;-83
2021/09/10 07:21:58;;;;;;;6.95;6.20;;;;;;;22.97;56.65;95615.97;5087985;28;20196;-83
2021/09/10 07:24:25;;;;;;;7.68;5.50;;;;;;;23.16;56.68;95618.97;5087513;28;20246;-81
2021/09/10 07:26:52;;;;;;;7.00;5.85;;;;;;;23.32;56.81;95612.75;5091057;28;20284;-82
2021/09/10 07:29:20;;;;;;;6.15;5.55;;;;;;;23.43;56.10;95614.38;5089216;28;20254;-81
2021/09/10 07:31:47;;;;;;;6.30;5.75;;;;;;;23.58;55.41;95611.84;5081732;28;20263;-81
2021/09/10 07:34:13;;;;;;;6.30;5.80;;;;;;;23.70;55.19;95617.66;5082889;28;20232;-82
2021/09/10 07:36:40;;;;;;;9.10;5.55;;;;;;;23.89;54.64;95606.69;5086554;28;20239;-83
2021/09/10 07:39:07;;;;;;;6.00;5.50;;;;;;;23.97;53.89;95614.06;5089607;28;20238;-82
2021/09/10 07:41:33;;;;;;;6.13;5.63;;;;;;;24.18;53.19;95620.97;5095047;28;20227;-82
2021/09/10 07:44:01;;;;;;;5.95;5.50;;;;;;;24.22;52.16;95622.03;5085549;28;20235;-82
2021/09/10 07:46:27;;;;;;;6.20;5.57;;;;;;;24.31;52.35;95614.41;5086063;28;20212;-82
2021/09/10 07:48:54;;;;;;;6.10;5.05;;;;;;;24.50;52.11;95610.22;5091857;28;20226;-81
2021/09/10 07:51:20;;;;;;;5.68;5.15;;;;;;;24.56;52.03;95614.44;5084868;28;20653;-82
2021/09/10 07:53:46;;;;;;;5.60;5.20;;;;;;;24.73;51.78;95617.59;5084564;28;20201;-82
2021/09/10 07:56:13;;;;;;;5.65;5.05;;;;;;;24.90;50.77;95616.50;5082768;28;20207;-81
2021/09/10 07:58:39;;;;;;;7.25;5.35;;;;;;;24.98;49.85;95616.81;5085599;28;20657;-82
2021/09/10 08:01:07;;;;;;;5.47;4.97;;;;;;;25.09;50.13;95617.56;5094514;28;20200;-82
2021/09/10 08:03:36;;;;;;;5.68;4.82;;;;;;;25.14;49.73;95625.47;5085090;28;20712;-82
2021/09/10 08:06:20;;;;;;;6.18;5.53;;;;;;;25.30;49.72;95619.09;5087197;28;20216;-83
2021/09/10 08:08:47;;;;;;;5.75;5.00;;;;;;;25.53;49.96;95622.19;5081557;28;20220;-83
2021/09/10 08:11:16;;;;;;;7.43;5.20;;;;;;;25.64;48.34;95613.19;5085491;28;20214;-82
2021/09/10 08:13:42;;;;;;;7.70;5.60;;;;;;;25.80;48.23;95615.50;5086194;28;20211;-82
2021/09/10 08:16:11;;;;;;;5.53;5.10;;;;;;;25.78;47.58;95615.00;5080586;28;20207;-83
2021/09/10 08:18:37;;;;;;;6.57;5.22;;;;;;;26.04;48.11;95623.53;5094867;28;20219;-82
2021/09/10 08:21:03;;;;;;;7.43;5.00;;;;;;;26.06;46.67;95620.63;5085422;28;20207;-82
2021/09/10 08:23:30;;;;;;;8.68;5.40;;;;;;;26.13;46.17;95631.69;5079099;28;20221;-82
2021/09/10 08:25:56;;;;;;;5.80;5.32;;;;;;;26.26;46.57;95625.78;5080452;28;20215;-84
2021/09/10 08:28:23;;;;;;;7.10;5.35;;;;;;;26.41;46.63;95630.19;5080646;28;20586;-84
2021/09/10 08:30:49;;;;;;;7.10;5.40;;;;;;;26.49;46.39;95634.91;5079974;28;20196;-83
2021/09/10 08:33:18;;;;;;;6.32;5.55;;;;;;;26.67;46.68;95633.44;5079134;28;20850;-86
2021/09/10 08:35:44;;;;;;;6.60;5.10;;;;;;;26.84;46.13;95639.13;5079528;28;20283;-85
2021/09/10 08:38:11;;;;;;;6.45;5.07;;;;;;;26.99;45.98;95638.22;5077651;28;20293;-86
2021/09/10 08:40:37;;;;;;;5.97;5.07;;;;;;;27.11;45.58;95638.66;5079864;28;20207;-84
2021/09/10 08:43:04;;;;;;;7.85;5.55;;;;;;;27.25;45.24;95630.84;5083485;28;20220;-85
2021/09/10 08:45:31;;;;;;;6.43;5.30;;;;;;;27.28;45.44;95630.28;5101462;28;20211;-83
2021/09/10 08:47:58;;;;;;;5.95;5.10;;;;;;;27.33;45.55;95641.56;5098998;28;20745;-85
2021/09/10 08:50:25;;;;;;;6.03;5.00;;;;;;;27.55;45.72;95637.63;5091108;28;20725;-85
2021/09/10 08:52:52;;;;;;;8.52;5.20;;;;;;;27.54;43.68;95647.44;5081155;28;20200;-84
2021/09/10 08:55:19;;;;;;;6.22;5.53;;;;;;;27.68;44.77;95642.28;5080296;28;20208;-85
2021/09/10 08:57:47;;;;;;;5.65;5.05;;;;;;;27.71;44.59;95637.19;5096463;28;20232;-85
2021/09/10 09:00:15;;;;;;;7.80;5.30;;;;;;;27.71;43.73;95645.13;5104060;28;20184;-85
2021/09/10 09:02:41;;;;;;;6.10;5.13;;;;;;;27.81;44.25;95647.66;5101548;28;20200;-85
2021/09/10 09:05:09;;;;;;;9.52;5.60;;;;;;;27.94;44.32;95650.69;5099436;28;20208;-85
2021/09/10 09:07:40;;;;;;;5.90;5.40;;;;;;;28.04;44.16;95650.56;5094487;28;20204;-84
2021/09/10 09:10:08;;;;;;;8.40;5.30;;;;;;;28.14;43.84;95647.78;5083034;28;20216;-85
2021/09/10 09:12:34;;;;;;;7.18;5.53;;;;;;;28.19;42.36;95639.75;5081179;28;20223;-84
2021/09/10 09:15:02;;;;;;;6.15;5.13;;;;;;;28.29;42.86;95644.94;5083260;28;20211;-86
2021/09/10 09:17:31;;;;;;;5.90;4.80;;;;;;;28.34;42.74;95630.84;5082799;28;20200;-84
2021/09/10 09:20:20;;;;;;;7.50;5.30;;;;;;;28.44;41.88;95636.00;5082188;28;20678;-86
2021/09/10 09:23:00;;;;;;;7.28;5.20;;;;;;;28.47;42.77;95624.81;5082504;28;20280;-85
2021/09/10 09:25:41;;;;;;;6.00;4.93;;;;;;;28.50;42.26;95630.31;5081681;28;20196;-83
2021/09/10 09:28:22;;;;;;;6.07;4.93;;;;;;;28.61;42.87;95624.88;5082690;28;20217;-83
2021/09/10 09:30:50;;;;;;;6.93;5.40;;;;;;;28.61;42.37;95627.53;5083398;28;20196;-84
2021/09/10 09:33:18;;;;;;;5.15;4.75;;;;;;;28.74;42.99;95630.22;5082234;28;20303;-83
2021/09/10 09:35:46;;;;;;;8.05;5.55;;;;;;;28.79;42.32;95629.34;5084180;28;20235;-83
2021/09/10 09:38:19;;;;;;;18.58;5.30;;;;;;;28.84;41.72;95631.94;5084015;28;20234;-83
2021/09/10 09:40:47;;;;;;;5.72;5.22;;;;;;;28.77;41.21;95623.53;5080322;28;20201;-84
2021/09/10 09:43:17;;;;;;;6.93;5.15;;;;;;;28.76;41.26;95635.22;5088519;28;20276;-83
2021/09/10 09:45:46;;;;;;;6.43;5.00;;;;;;;28.81;41.78;95630.66;5104491;28;20234;-83
2021/09/10 09:48:14;;;;;;;5.40;4.85;;;;;;;28.84;42.13;95624.00;5098557;28;20517;-84
2021/09/10 09:50:42;;;;;;;8.57;4.88;;;;;;;28.86;42.31;95621.84;5082827;28;20228;-85
2021/09/10 09:53:09;;;;;;;5.13;4.72;;;;;;;28.94;41.76;95623.03;5082420;28;20311;-85
2021/09/10 09:56:02;;;;;;;6.55;4.82;;;;;;;29.02;41.50;95619.72;5082881;28;20211;-85
2021/09/10 09:58:30;;;;;;;5.90;4.95;;;;;;;29.02;41.53;95615.19;5081767;28;20279;-84
2021/09/10 10:01:03;;;;;;;5.53;5.03;;;;;;;29.01;41.44;95624.22;5082090;28;20205;-85
2021/09/10 10:03:40;;;;;;;6.30;5.28;;;;;;;28.57;42.26;95623.88;5081853;28;20216;-85
2021/09/10 10:06:13;;;;;;;6.95;5.30;;;;;;;28.38;42.18;95624.69;5101371;28;20199;-84
2021/09/10 10:08:46;;;;;;;8.27;5.30;;;;;;;28.40;42.13;95619.88;5083003;28;20213;-85
2021/09/10 10:11:20;;;;;;;5.97;5.40;;;;;;;28.49;42.50;95625.31;5101778;28;20259;-85
2021/09/10 10:13:47;;;;;;;6.18;5.55;;;;;;;28.31;43.20;95618.94;5082503;28;20211;-86
2021/09/10 10:16:33;;;;;;;6.78;4.97;;;;;;;28.23;43.26;95622.25;5070621;28;20534;-85
2021/09/10 10:19:00;;;;;;;5.95;5.30;;;;;;;28.08;43.16;95615.31;5071611;28;20243;-85
2021/09/10 10:21:49;;;;;;;6.43;5.75;;;;;;;27.87;43.96;95616.66;5091859;28;20239;-87
2021/09/10 10:24:38;;;;;;;7.15;5.43;;;;;;;27.83;43.02;95616.41;5093593;28;20243;-83
2021/09/10 10:27:39;;;;;;;6.53;5.13;;;;;;;27.85;43.60;95621.44;5092417;28;20298;-83
2021/09/10 10:30:08;;;;;;;6.68;6.00;;;;;;;27.84;43.80;95615.34;5092991;28;20195;-84
2021/09/10 10:32:39;;;;;;;6.38;5.78;;;;;;;27.63;43.61;95611.38;5093333;28;20208;-85
2021/09/10 10:35:25;;;;;;;9.57;5.55;;;;;;;27.45;44.27;95606.81;5094403;28;20207;-84
2021/09/10 10:37:54;;;;;;;6.40;5.70;;;;;;;27.38;44.92;95603.72;5094512;28;20219;-85
2021/09/10 10:40:33;;;;;;;5.75;5.20;;;;;;;27.42;45.04;95597.56;5094080;28;20207;-84
2021/09/10 10:43:04;;;;;;;6.30;5.70;;;;;;;27.44;44.58;95600.72;5092709;28;20198;-85
2021/09/10 10:45:59;;;;;;;6.07;5.43;;;;;;;27.43;43.88;95593.88;5078161;28;20192;-84
2021/09/10 10:48:52;;;;;;;5.95;5.40;;;;;;;27.44;44.93;95598.09;5072656;28;20241;-84
2021/09/10 10:51:42;;;;;;;7.35;5.53;;;;;;;27.38;44.34;95593.91;5073419;28;20228;-84
2021/09/10 10:54:13;;;;;;;7.45;5.80;;;;;;;27.24;43.87;95598.31;5075799;28;20204;-85
2021/09/10 10:56:50;;;;;;;14.77;7.22;;;;;;;27.12;44.10;95598.72;5074454;28;20210;-85
2021/09/10 10:59:41;;;;;;;6.13;5.60;;;;;;;27.07;44.32;95593.47;5071938;28;20216;-84
2021/09/10 11:02:28;;;;;;;6.15;5.55;;;;;;;27.24;43.76;95586.94;5056207;28;20211;-85
2021/09/10 11:05:00;;;;;;;6.53;5.93;;;;;;;27.30;43.85;95591.13;5073803;28;20225;-85
2021/09/10 11:07:29;;;;;;;6.10;5.53;;;;;;;27.18;44.64;95581.72;5072737;28;20224;-85
2021/09/10 11:10:00;;;;;;;6.47;5.88;;;;;;;27.28;45.17;95578.19;5070341;28;20250;-85
2021/09/10 11:12:27;;;;;;;7.28;5.80;;;;;;;27.32;43.35;95581.84;5069907;28;20204;-85
2021/09/10 11:14:56;;;;;;;6.75;6.10;;;;;;;27.28;44.63;95580.81;5070059;28;20216;-85
2021/09/10 11:17:27;;;;;;;6.72;6.03;;;;;;;27.06;44.13;95586.63;5070421;28;20200;-85
2021/09/10 11:19:55;;;;;;;7.38;6.70;;;;;;;26.87;43.68;95583.06;5074615;28;20206;-85
2021/09/10 11:22:22;;;;;;;6.78;5.80;;;;;;;26.45;44.93;95573.16;5090748;28;20294;-85
2021/09/10 11:24:49;;;;;;;7.20;5.90;;;;;;;26.17;45.19;95569.34;5090859;28;20216;-85
2021/09/10 11:27:25;;;;;;;7.53;6.28;;;;;;;26.17;45.49;95564.06;5091516;28;20215;-85
2021/09/10 11:29:52;;;;;;;6.55;5.93;;;;;;;26.26;45.61;95565.06;5091608;28;20216;-85
2021/09/10 11:32:22;;;;;;;8.60;6.00;;;;;;;26.37;45.61;95563.94;5091501;28;20200;-85
2021/09/10 11:34:49;;;;;;;9.25;6.55;;;;;;;26.44;44.59;95568.91;5091723;28;20210;-84
2021/09/10 11:37:24;;;;;;;6.40;5.60;;;;;;;26.61;45.77;95566.66;5093681;28;20204;-84
2021/09/10 11:39:50;;;;;;;7.55;6.28;;;;;;;26.75;44.62;95566.78;5086258;28;20224;-85